createdAt,value
2022-11-25T00:03:55.119Z,101105.31
2022-11-25T00:10:56.722Z,101098.69
2022-11-25T00:17:58.284Z,101115.81
2022-11-25T00:24:59.847Z,101115.97
2022-11-25T00:32:01.472Z,101112.31
2022-11-25T00:39:09.299Z,101108.19
2022-11-25T00:46:10.936Z,101119.41
2022-11-25T00:53:12.750Z,101108.63
2022-11-25T01:00:14.603Z,101119.06
2022-11-25T01:07:16.484Z,101120.97
2022-11-25T01:14:18.821Z,101108.47
2022-11-25T01:21:23.634Z,101119.06
2022-11-25T01:28:25.211Z,101113.72
2022-11-25T01:35:27.461Z,101114.41
2022-11-25T01:42:30.483Z,101100.19
2022-11-25T01:49:41.205Z,101102.72
2022-11-25T01:56:44.925Z,101085.56
2022-11-25T02:03:47.793Z,101086.75
2022-11-25T02:10:49.404Z,101097.19
2022-11-25T02:17:52.230Z,101080.22
2022-11-25T02:24:56.702Z,101074.09
2022-11-25T02:31:58.333Z,101072.41
2022-11-25T02:39:03.259Z,101072.38
2022-11-25T02:46:15.036Z,101074.38
2022-11-25T02:53:20.782Z,101080.25
2022-11-25T03:00:22.497Z,101084.31
2022-11-25T03:07:24.231Z,101100.13
2022-11-25T03:14:27.211Z,101098.97
2022-11-25T03:21:28.955Z,101097.09
2022-11-25T03:28:31.487Z,101106.03
2022-11-25T03:35:33.206Z,101103.03
2022-11-25T03:42:34.911Z,101107.41
2022-11-25T03:49:37.433Z,101100.06
2022-11-25T03:56:39.190Z,101097.59
2022-11-25T04:03:40.842Z,101106.34
2022-11-25T04:10:42.535Z,101111.47
2022-11-25T04:17:45.816Z,101104.59
2022-11-25T04:24:47.512Z,101109.13
2022-11-25T04:31:54.349Z,101119.72
2022-11-25T04:38:56.009Z,101140.16
2022-11-25T04:46:14.365Z,101128.28
2022-11-25T04:53:19.616Z,101131.72
2022-11-25T05:00:22.064Z,101137.19
2022-11-25T05:07:25.018Z,101122.44
2022-11-25T05:14:29.009Z,101127.06
2022-11-25T05:21:31.079Z,101124.03
2022-11-25T05:28:33.530Z,101138.31
2022-11-25T05:35:35.552Z,101143.31
2022-11-25T05:42:37.603Z,101156.91
2022-11-25T05:49:42.281Z,101155.00
2022-11-25T05:56:44.137Z,101155.03
2022-11-25T06:04:01.227Z,101159.91
2022-11-25T06:11:05.926Z,101158.50
2022-11-25T06:18:08.208Z,101154.63
2022-11-25T06:25:10.328Z,101154.25
2022-11-25T06:32:13.420Z,101142.31
2022-11-25T06:39:18.090Z,101147.66
2022-11-25T06:46:24.864Z,101147.97
2022-11-25T06:53:27.013Z,101163.13
2022-11-25T07:00:28.571Z,101169.25
2022-11-25T07:07:30.199Z,101176.41
2022-11-25T07:14:31.786Z,101177.34
2022-11-25T07:21:33.887Z,101195.22
2022-11-25T07:28:35.661Z,101203.41
2022-11-25T07:35:37.202Z,101214.78
2022-11-25T07:42:38.840Z,101228.81
2022-11-25T07:49:43.862Z,101224.16
2022-11-25T07:56:45.446Z,101212.84
2022-11-25T08:03:47.741Z,101209.38
2022-11-25T08:10:49.692Z,101211.16
2022-11-25T08:17:52.665Z,101214.47
2022-11-25T08:24:54.295Z,101221.00
2022-11-25T08:31:55.920Z,101225.72
2022-11-25T08:39:02.469Z,101224.78
2022-11-25T08:46:08.596Z,101235.78
2022-11-25T08:53:10.199Z,101235.56
2022-11-25T09:00:12.300Z,101236.81
2022-11-25T09:07:13.899Z,101248.19
2022-11-25T09:14:15.532Z,101235.31
2022-11-25T09:21:17.668Z,101250.69
2022-11-25T09:28:20.248Z,101255.06
2022-11-25T09:35:22.312Z,101250.75
2022-11-25T09:42:58.363Z,101237.00
2022-11-25T09:50:05.503Z,101236.31
2022-11-25T09:57:26.958Z,101233.25
2022-11-25T10:04:39.946Z,101230.88
2022-11-25T10:11:51.127Z,101235.94
2022-11-25T10:19:16.981Z,101225.91
2022-11-25T10:26:21.296Z,101223.38
2022-11-25T10:33:32.076Z,101223.59
2022-11-25T10:40:33.548Z,101228.25
2022-11-25T10:47:55.383Z,101219.66
2022-11-25T10:54:58.305Z,101221.78
2022-11-25T11:02:13.209Z,101225.38
2022-11-25T11:09:37.494Z,101246.22
2022-11-25T11:16:42.099Z,101232.38
2022-11-25T11:23:48.663Z,101231.56
2022-11-25T11:31:02.460Z,101223.88
2022-11-25T11:38:13.134Z,101232.50
2022-11-25T11:45:24.062Z,101221.81
2022-11-25T11:52:35.422Z,101216.28
2022-11-25T11:59:46.131Z,101219.72
2022-11-25T12:06:53.271Z,101215.41
2022-11-25T12:14:01.286Z,101209.41
2022-11-25T12:21:05.331Z,101194.94
2022-11-25T12:28:18.144Z,101197.31
2022-11-25T12:35:21.113Z,101202.19
2022-11-25T12:42:24.899Z,101207.03
2022-11-25T12:49:33.689Z,101201.66
2022-11-25T12:57:08.703Z,101203.94
2022-11-25T13:04:22.930Z,101207.91
2022-11-25T13:11:39.817Z,101195.44
2022-11-25T13:18:42.897Z,101199.56
2022-11-25T13:25:45.859Z,101210.97
2022-11-25T13:32:47.562Z,101230.28
2022-11-25T13:39:49.126Z,101221.63
2022-11-25T13:46:58.229Z,101249.09
2022-11-25T13:54:01.258Z,101242.59
2022-11-25T14:01:26.315Z,101250.78
2022-11-25T14:08:37.389Z,101249.84
2022-11-25T14:16:01.089Z,101247.66
2022-11-25T14:23:23.969Z,101258.28
2022-11-25T14:30:25.555Z,101258.22
2022-11-25T14:37:35.053Z,101257.16
2022-11-25T14:44:58.366Z,101265.63
2022-11-25T14:51:59.990Z,101279.97
2022-11-25T14:59:01.572Z,101282.34
2022-11-25T15:06:04.455Z,101290.41
2022-11-25T15:13:28.264Z,101303.28
2022-11-25T15:20:34.409Z,101299.25
2022-11-25T15:27:46.062Z,101303.41
2022-11-25T15:34:47.630Z,101304.22
2022-11-25T15:41:51.343Z,101312.91
2022-11-25T15:48:53.606Z,101307.66
2022-11-25T15:55:58.610Z,101302.47
2022-11-25T16:03:00.253Z,101302.78
2022-11-25T16:10:01.907Z,101300.09
2022-11-25T16:17:12.275Z,101317.22
2022-11-25T16:24:50.458Z,101321.28
2022-11-25T16:31:52.085Z,101322.22
2022-11-25T16:38:56.878Z,101323.66
2022-11-25T16:45:58.806Z,101324.72
2022-11-25T16:53:01.419Z,101329.34
2022-11-25T17:00:08.425Z,101334.69
2022-11-25T17:07:32.231Z,101341.91
2022-11-25T17:14:35.070Z,101338.09
2022-11-25T17:21:36.738Z,101342.47
2022-11-25T17:28:38.292Z,101344.16
2022-11-25T17:35:39.857Z,101355.16
2022-11-25T17:42:41.569Z,101361.47
2022-11-25T17:49:43.364Z,101367.84
2022-11-25T17:56:50.547Z,101367.59
2022-11-25T18:03:54.058Z,101382.63
2022-11-25T18:10:55.616Z,101376.91
2022-11-25T18:18:05.335Z,101388.44
2022-11-25T18:25:09.516Z,101394.41
2022-11-25T18:32:11.180Z,101397.19
2022-11-25T18:39:13.727Z,101389.91
2022-11-25T18:46:15.433Z,101407.84
2022-11-25T18:53:17.149Z,101420.34
2022-11-25T19:00:33.602Z,101410.31
2022-11-25T19:07:35.426Z,101427.19
2022-11-25T19:14:37.840Z,101435.28
2022-11-25T19:21:39.581Z,101435.09
2022-11-25T19:28:41.151Z,101452.09
2022-11-25T19:35:42.712Z,101452.09
2022-11-25T19:42:46.112Z,101467.56
2022-11-25T19:49:48.045Z,101475.63
2022-11-25T19:56:49.610Z,101485.53
2022-11-25T20:03:51.169Z,101490.59
2022-11-25T20:10:52.794Z,101496.03
2022-11-25T20:17:55.926Z,101513.00
2022-11-25T20:24:57.526Z,101514.81
2022-11-25T20:31:59.177Z,101520.16
2022-11-25T20:39:01.641Z,101532.63
2022-11-25T20:46:03.380Z,101536.25
2022-11-25T20:53:04.994Z,101545.78
2022-11-25T21:00:14.678Z,101556.47
2022-11-25T21:07:17.712Z,101556.28
2022-11-25T21:14:19.692Z,101559.91
2022-11-25T21:21:28.608Z,101565.13
2022-11-25T21:28:30.233Z,101572.28
2022-11-25T21:35:33.611Z,101574.88
2022-11-25T21:42:35.146Z,101582.84
2022-11-25T21:49:36.699Z,101584.72
2022-11-25T21:56:38.930Z,101580.34
2022-11-25T22:03:40.582Z,101592.03
2022-11-25T22:10:44.324Z,101591.72
2022-11-25T22:17:46.068Z,101603.75
2022-11-25T22:24:47.691Z,101613.66
2022-11-25T22:31:49.443Z,101619.03
2022-11-25T22:38:51.171Z,101625.56
2022-11-25T22:45:52.906Z,101633.50
2022-11-25T22:52:55.314Z,101650.75
2022-11-25T22:59:56.861Z,101655.03
2022-11-25T23:06:58.428Z,101658.69
2022-11-25T23:14:00.003Z,101660.34
2022-11-25T23:21:01.592Z,101659.41
2022-11-25T23:28:03.300Z,101670.06
2022-11-25T23:35:05.241Z,101686.94
2022-11-25T23:42:16.181Z,101688.78
2022-11-25T23:49:41.465Z,101689.63
2022-11-25T23:56:43.263Z,101693.09
